createdAt,value
2018-12-16T00:03:20.068Z,11.10
2018-12-16T00:07:31.933Z,11.00
2018-12-16T00:11:43.935Z,11.00
2018-12-16T00:15:56.188Z,11.00
2018-12-16T00:20:08.203Z,10.90
2018-12-16T00:24:20.223Z,11.00
2018-12-16T00:28:32.338Z,11.00
2018-12-16T00:32:44.392Z,10.90
2018-12-16T00:36:56.374Z,10.90
2018-12-16T00:41:08.633Z,10.90
2018-12-16T00:45:20.702Z,10.90
2018-12-16T00:49:32.719Z,10.90
2018-12-16T00:53:44.713Z,10.90
2018-12-16T00:57:56.820Z,10.90
2018-12-16T01:02:13.066Z,10.90
2018-12-16T01:06:24.798Z,10.90
2018-12-16T01:10:36.592Z,10.90
2018-12-16T01:14:48.422Z,10.80
2018-12-16T01:19:00.417Z,10.80
2018-12-16T01:23:12.478Z,10.80
2018-12-16T01:27:24.564Z,10.90
2018-12-16T01:31:36.547Z,10.80
2018-12-16T01:35:48.757Z,10.80
2018-12-16T01:40:00.909Z,10.90
2018-12-16T01:44:13.129Z,10.90
2018-12-16T01:48:25.094Z,10.80
2018-12-16T01:52:37.258Z,10.80
2018-12-16T01:56:49.448Z,10.80
2018-12-16T02:01:01.406Z,10.80
2018-12-16T02:05:13.530Z,10.70
2018-12-16T02:09:25.540Z,10.80
2018-12-16T02:13:37.535Z,10.80
2018-12-16T02:17:49.727Z,10.80
2018-12-16T02:22:01.877Z,10.70
2018-12-16T02:26:13.946Z,10.60
2018-12-16T02:30:30.188Z,10.60
2018-12-16T02:34:41.934Z,10.50
2018-12-16T02:38:53.627Z,10.50
2018-12-16T02:43:05.588Z,10.50
2018-12-16T02:47:17.575Z,10.50
2018-12-16T02:51:29.631Z,10.50
2018-12-16T02:55:41.680Z,10.50
2018-12-16T02:59:53.901Z,10.60
2018-12-16T03:04:06.004Z,10.60
2018-12-16T03:08:18.003Z,10.60
2018-12-16T03:12:29.739Z,10.70
2018-12-16T03:16:41.763Z,10.70
2018-12-16T03:20:53.563Z,10.60
2018-12-16T03:25:05.331Z,10.60
2018-12-16T03:29:17.371Z,10.50
2018-12-16T03:33:29.331Z,10.30
2018-12-16T03:37:41.484Z,10.20
2018-12-16T03:41:53.544Z,10.30
2018-12-16T03:46:05.565Z,10.40
2018-12-16T03:50:17.763Z,10.40
2018-12-16T03:54:29.878Z,10.50
2018-12-16T03:58:51.108Z,10.60
2018-12-16T04:03:03.288Z,10.60
2018-12-16T04:07:14.895Z,10.60
2018-12-16T04:11:26.952Z,10.50
2018-12-16T04:15:38.648Z,10.50
2018-12-16T04:19:50.511Z,10.60
2018-12-16T04:24:02.599Z,10.60
2018-12-16T04:28:15.351Z,10.50
2018-12-16T04:32:27.138Z,10.50
2018-12-16T04:36:39.169Z,10.50
2018-12-16T04:40:51.356Z,10.60
2018-12-16T04:45:03.468Z,10.70
2018-12-16T04:49:15.560Z,10.70
2018-12-16T04:53:34.838Z,10.70
2018-12-16T04:57:41.534Z,10.60
2018-12-16T05:01:53.543Z,10.60
2018-12-16T05:06:05.651Z,10.60
2018-12-16T05:10:29.539Z,10.60
2018-12-16T05:14:41.399Z,10.60
2018-12-16T05:18:53.139Z,10.50
2018-12-16T05:23:05.192Z,10.50
2018-12-16T05:27:17.246Z,10.50
2018-12-16T05:31:29.347Z,10.50
2018-12-16T05:35:41.262Z,10.60
2018-12-16T05:39:53.408Z,10.60
2018-12-16T05:44:05.419Z,10.50
2018-12-16T05:48:17.436Z,10.60
2018-12-16T05:52:29.451Z,10.60
2018-12-16T05:56:41.509Z,10.60
2018-12-16T06:00:53.707Z,10.70
2018-12-16T06:05:06.732Z,10.70
2018-12-16T06:09:18.582Z,10.70
2018-12-16T06:13:30.447Z,10.60
2018-12-16T06:17:42.547Z,10.60
2018-12-16T06:21:54.662Z,10.50
2018-12-16T06:26:06.930Z,10.50
2018-12-16T06:30:19.988Z,10.40
2018-12-16T06:34:31.634Z,10.30
2018-12-16T06:38:43.399Z,10.40
2018-12-16T06:42:55.452Z,10.30
2018-12-16T06:47:07.523Z,10.30
2018-12-16T06:51:19.728Z,10.30
2018-12-16T06:55:31.735Z,10.20
2018-12-16T06:59:43.899Z,10.20
2018-12-16T07:03:55.941Z,10.10
2018-12-16T07:08:08.031Z,10.10
2018-12-16T07:12:20.833Z,10.10
2018-12-16T07:16:32.585Z,10.10
2018-12-16T07:20:44.596Z,10.10
2018-12-16T07:24:56.590Z,10.10
2018-12-16T07:29:08.696Z,10.10
2018-12-16T07:33:20.939Z,10.20
2018-12-16T07:37:32.942Z,10.40
2018-12-16T07:41:44.934Z,10.40
2018-12-16T07:45:56.918Z,10.40
2018-12-16T07:50:09.982Z,10.50
2018-12-16T07:54:21.721Z,10.40
2018-12-16T07:58:33.498Z,10.40
2018-12-16T08:02:45.597Z,10.40
2018-12-16T08:06:57.471Z,10.50
2018-12-16T08:11:09.579Z,10.50
2018-12-16T08:15:21.688Z,10.60
2018-12-16T08:19:33.807Z,10.60
2018-12-16T08:23:45.891Z,10.60
2018-12-16T08:27:57.889Z,10.60
2018-12-16T08:32:09.920Z,10.70
2018-12-16T08:36:21.550Z,10.70
2018-12-16T08:40:33.456Z,10.80
2018-12-16T08:44:45.164Z,10.80
2018-12-16T08:48:57.015Z,11.10
2018-12-16T08:53:09.024Z,11.20
2018-12-16T08:57:21.034Z,11.30
2018-12-16T09:01:33.239Z,11.30
2018-12-16T09:05:45.327Z,11.40
2018-12-16T09:09:57.442Z,11.60
2018-12-16T09:14:09.559Z,11.60
2018-12-16T09:18:21.555Z,11.80
2018-12-16T09:22:33.227Z,11.80
2018-12-16T09:26:44.951Z,11.80
2018-12-16T09:30:58.097Z,11.90
2018-12-16T09:35:10.380Z,11.80
2018-12-16T09:39:22.365Z,11.80
2018-12-16T09:43:34.406Z,11.80
2018-12-16T09:47:46.735Z,11.90
2018-12-16T09:51:58.793Z,11.90
2018-12-16T09:56:10.853Z,11.90
2018-12-16T10:00:22.900Z,11.80
2018-12-16T10:04:34.879Z,11.70
2018-12-16T10:08:46.880Z,11.70
2018-12-16T10:12:59.063Z,11.70
2018-12-16T10:17:10.748Z,11.20
2018-12-16T10:21:24.133Z,10.60
2018-12-16T10:25:36.280Z,10.20
2018-12-16T10:29:48.087Z,10.20
2018-12-16T10:34:00.032Z,10.30
2018-12-16T10:38:12.040Z,10.50
2018-12-16T10:42:24.192Z,10.70
2018-12-16T10:46:36.158Z,10.70
2018-12-16T10:50:48.256Z,10.80
2018-12-16T10:55:00.378Z,10.80
2018-12-16T10:59:12.568Z,10.70
2018-12-16T11:03:24.675Z,10.60
2018-12-16T11:07:36.784Z,10.50
2018-12-16T11:11:48.867Z,10.30
2018-12-16T11:16:01.149Z,10.40
2018-12-16T11:20:13.147Z,10.40
2018-12-16T11:24:25.259Z,10.40
2018-12-16T11:28:37.232Z,10.30
2018-12-16T11:32:48.327Z,10.20
2018-12-16T11:37:00.228Z,10.10
2018-12-16T11:41:12.238Z,10.10
2018-12-16T11:45:24.323Z,10.00
2018-12-16T11:49:36.424Z,10.10
2018-12-16T11:53:48.007Z,10.00
2018-12-16T11:57:59.811Z,10.00
2018-12-16T12:02:13.223Z,10.00
2018-12-16T12:06:25.769Z,9.90
2018-12-16T12:10:37.973Z,9.90
2018-12-16T12:14:49.763Z,9.90
2018-12-16T12:19:02.951Z,9.80
2018-12-16T12:23:15.032Z,9.80
2018-12-16T12:27:27.682Z,9.80
2018-12-16T12:31:39.542Z,9.70
2018-12-16T12:35:51.386Z,9.70
2018-12-16T12:40:03.375Z,9.70
2018-12-16T12:44:15.583Z,9.70
2018-12-16T12:48:27.590Z,9.70
2018-12-16T12:52:39.837Z,9.70
2018-12-16T12:56:51.327Z,9.80
2018-12-16T13:01:03.194Z,9.80
2018-12-16T13:05:15.363Z,10.00
2018-12-16T13:09:27.369Z,10.00
2018-12-16T13:13:39.375Z,10.10
2018-12-16T13:17:51.083Z,10.20
2018-12-16T13:22:03.671Z,10.20
2018-12-16T13:26:19.319Z,10.20
2018-12-16T13:30:33.287Z,10.00
2018-12-16T13:34:45.218Z,9.90
2018-12-16T13:38:57.315Z,10.00
2018-12-16T13:43:09.684Z,10.00
2018-12-16T13:47:21.992Z,10.00
2018-12-16T13:51:34.059Z,10.00
2018-12-16T13:55:46.259Z,10.00
2018-12-16T13:59:58.151Z,10.00
2018-12-16T14:04:10.224Z,10.00
2018-12-16T14:08:22.270Z,10.00
2018-12-16T14:12:34.390Z,10.00
2018-12-16T14:16:46.959Z,10.00
2018-12-16T14:20:58.902Z,10.10
2018-12-16T14:25:10.920Z,10.10
2018-12-16T14:29:22.922Z,10.20
2018-12-16T14:33:34.928Z,10.20
2018-12-16T14:37:47.014Z,10.20
2018-12-16T14:41:59.119Z,10.20
2018-12-16T14:46:11.242Z,10.30
2018-12-16T14:50:23.347Z,10.30
2018-12-16T14:54:35.346Z,10.40
2018-12-16T14:58:47.372Z,10.50
2018-12-16T15:02:59.616Z,10.60
2018-12-16T15:07:11.658Z,10.60
2018-12-16T15:11:23.788Z,10.60
2018-12-16T15:15:35.895Z,10.50
2018-12-16T15:19:48.012Z,10.20
2018-12-16T15:24:00.020Z,9.90
2018-12-16T15:28:12.115Z,9.90
2018-12-16T15:32:23.774Z,9.70
2018-12-16T15:36:36.095Z,9.60
2018-12-16T15:40:48.297Z,9.60
2018-12-16T15:44:59.973Z,9.60
2018-12-16T15:49:11.666Z,9.60
2018-12-16T15:53:23.571Z,9.60
2018-12-16T15:57:35.460Z,9.70
2018-12-16T16:01:47.580Z,9.70
2018-12-16T16:05:59.616Z,9.70
2018-12-16T16:10:11.782Z,9.60
2018-12-16T16:14:23.787Z,9.60
2018-12-16T16:18:35.936Z,9.60
2018-12-16T16:22:47.840Z,9.70
2018-12-16T16:26:59.691Z,9.70
2018-12-16T16:31:11.848Z,9.60
2018-12-16T16:35:23.895Z,9.60
2018-12-16T16:39:35.998Z,9.60
2018-12-16T16:43:48.105Z,9.60
2018-12-16T16:47:59.646Z,9.60
2018-12-16T16:52:11.468Z,9.50
2018-12-16T16:56:23.571Z,9.50
2018-12-16T17:00:35.885Z,9.50
2018-12-16T17:04:47.647Z,9.50
2018-12-16T17:08:59.602Z,9.50
2018-12-16T17:13:11.607Z,9.50
2018-12-16T17:17:23.567Z,9.60
2018-12-16T17:21:35.762Z,9.60
2018-12-16T17:25:48.431Z,9.70
2018-12-16T17:30:02.142Z,9.80
2018-12-16T17:34:13.506Z,9.80
2018-12-16T17:38:25.564Z,9.80
2018-12-16T17:42:38.074Z,9.90
2018-12-16T17:46:49.891Z,9.90
2018-12-16T17:51:01.747Z,9.80
2018-12-16T17:55:13.833Z,9.90
2018-12-16T17:59:25.867Z,9.90
2018-12-16T18:03:38.293Z,10.00
2018-12-16T18:07:50.302Z,10.00
2018-12-16T18:12:02.552Z,10.10
2018-12-16T18:16:14.514Z,10.10
2018-12-16T18:20:26.634Z,10.10
2018-12-16T18:24:39.296Z,10.10
2018-12-16T18:28:51.899Z,10.00
2018-12-16T18:33:04.118Z,9.90
2018-12-16T18:37:16.351Z,9.80
2018-12-16T18:41:28.375Z,9.80
2018-12-16T18:45:40.484Z,9.70
2018-12-16T18:49:52.592Z,9.70
2018-12-16T18:54:04.722Z,9.70
2018-12-16T18:58:16.326Z,9.70
2018-12-16T19:02:28.048Z,9.60
2018-12-16T19:06:39.799Z,9.50
2018-12-16T19:10:51.782Z,9.40
2018-12-16T19:15:04.145Z,9.40
2018-12-16T19:19:16.468Z,9.50
2018-12-16T19:23:28.283Z,9.50
2018-12-16T19:27:40.149Z,9.40
2018-12-16T19:31:52.159Z,9.40
2018-12-16T19:36:04.216Z,9.30
2018-12-16T19:40:16.263Z,9.40
2018-12-16T19:44:28.391Z,9.40
2018-12-16T19:48:40.472Z,9.40
2018-12-16T19:52:52.476Z,9.50
2018-12-16T19:57:05.258Z,9.60
2018-12-16T20:01:17.154Z,9.70
2018-12-16T20:05:29.119Z,9.70
2018-12-16T20:09:41.013Z,9.70
2018-12-16T20:13:53.119Z,9.60
2018-12-16T20:18:05.120Z,9.60
2018-12-16T20:22:16.644Z,9.60
2018-12-16T20:26:28.784Z,9.60
2018-12-16T20:30:40.508Z,9.60
2018-12-16T20:34:51.851Z,9.60
2018-12-16T20:39:03.472Z,9.60
2018-12-16T20:43:15.343Z,9.50
2018-12-16T20:47:27.136Z,9.40
2018-12-16T20:51:39.227Z,9.30
2018-12-16T20:55:51.240Z,9.30
2018-12-16T21:00:03.387Z,9.30
2018-12-16T21:04:15.367Z,9.30
2018-12-16T21:08:27.487Z,9.30
2018-12-16T21:12:44.495Z,9.30
2018-12-16T21:17:01.138Z,9.40
2018-12-16T21:21:13.045Z,9.50
2018-12-16T21:25:25.069Z,9.40
2018-12-16T21:29:37.086Z,9.30
2018-12-16T21:33:49.248Z,9.30
2018-12-16T21:38:01.250Z,9.30
2018-12-16T21:42:13.507Z,9.40
2018-12-16T21:46:25.350Z,9.40
2018-12-16T21:50:37.486Z,9.40
2018-12-16T21:54:49.590Z,9.40
2018-12-16T21:59:02.652Z,9.40
2018-12-16T22:03:15.021Z,9.40
2018-12-16T22:07:27.213Z,9.40
2018-12-16T22:11:39.376Z,9.40
2018-12-16T22:15:51.508Z,9.50
2018-12-16T22:20:03.633Z,9.60
2018-12-16T22:24:15.868Z,9.70
2018-12-16T22:28:27.880Z,9.70
2018-12-16T22:32:40.100Z,9.80
2018-12-16T22:36:52.118Z,9.80
2018-12-16T22:41:04.100Z,9.80
2018-12-16T22:45:16.213Z,9.80
2018-12-16T22:49:28.326Z,9.90
2018-12-16T22:53:40.366Z,9.90
2018-12-16T22:57:52.393Z,9.90
2018-12-16T23:02:04.423Z,9.90
2018-12-16T23:06:16.516Z,9.90
2018-12-16T23:10:28.527Z,9.90
2018-12-16T23:14:40.631Z,9.80
2018-12-16T23:18:52.664Z,9.80
2018-12-16T23:23:04.879Z,9.70
2018-12-16T23:27:17.068Z,9.70
2018-12-16T23:31:29.070Z,9.70
2018-12-16T23:35:40.634Z,9.70
2018-12-16T23:39:52.524Z,9.70
2018-12-16T23:44:04.336Z,9.70
2018-12-16T23:48:16.186Z,9.70
2018-12-16T23:52:28.204Z,9.70
2018-12-16T23:56:40.288Z,9.60
